createdAt,value
2018-09-12T00:00:17.862Z,93.05
2018-09-12T00:01:17.840Z,93.05
2018-09-12T00:02:17.820Z,93.54
2018-09-12T00:03:17.800Z,93.34
2018-09-12T00:04:17.781Z,93.73
2018-09-12T00:05:17.760Z,94.45
2018-09-12T00:06:17.742Z,95.50
2018-09-12T00:07:17.721Z,95.41
2018-09-12T00:08:17.700Z,95.41
2018-09-12T00:09:17.681Z,95.79
2018-09-12T00:10:17.660Z,95.70
2018-09-12T00:11:17.640Z,95.60
2018-09-12T00:12:17.618Z,95.41
2018-09-12T00:13:17.599Z,95.31
2018-09-12T00:14:17.580Z,94.93
2018-09-12T00:15:17.562Z,94.64
2018-09-12T00:16:17.540Z,94.54
2018-09-12T00:17:17.519Z,94.35
2018-09-12T00:18:17.498Z,94.74
2018-09-12T00:19:17.478Z,94.74
2018-09-12T00:20:17.458Z,95.50
2018-09-12T00:21:17.671Z,95.41
2018-09-12T00:22:17.418Z,95.12
2018-09-12T00:23:17.399Z,95.70
2018-09-12T00:24:17.379Z,95.31
2018-09-12T00:25:17.360Z,95.98
2018-09-12T00:26:17.338Z,95.79
2018-09-12T00:27:17.317Z,96.18
2018-09-12T00:28:17.296Z,96.22
2018-09-12T00:29:17.277Z,96.32
2018-09-12T00:30:17.259Z,96.80
2018-09-12T00:31:17.237Z,96.42
2018-09-12T00:32:17.214Z,97.09
2018-09-12T00:33:17.199Z,96.42
2018-09-12T00:34:17.175Z,96.99
2018-09-12T00:35:17.155Z,97.66
2018-09-12T00:36:17.134Z,96.80
2018-09-12T00:37:17.114Z,97.28
2018-09-12T00:38:17.092Z,97.19
2018-09-12T00:39:17.074Z,97.56
2018-09-12T00:40:17.054Z,97.47
2018-09-12T00:41:17.029Z,98.14
2018-09-12T00:42:17.011Z,98.10
2018-09-12T00:43:16.997Z,98.67
2018-09-12T00:44:16.969Z,99.15
2018-09-12T00:45:16.948Z,99.24
2018-09-12T00:46:16.931Z,99.99
2018-09-12T00:47:16.910Z,99.73
2018-09-12T00:48:16.886Z,99.82
2018-09-12T00:49:16.867Z,99.99
2018-09-12T00:50:16.847Z,99.99
2018-09-12T00:51:16.826Z,99.99
2018-09-12T00:52:16.803Z,99.99
2018-09-12T00:53:16.783Z,99.99
2018-09-12T00:54:16.763Z,99.99
2018-09-12T00:55:16.743Z,99.99
2018-09-12T00:56:16.720Z,99.99
2018-09-12T00:57:16.700Z,99.99
2018-09-12T00:58:16.679Z,99.99
2018-09-12T00:59:16.660Z,99.99
2018-09-12T01:00:16.637Z,99.99
2018-09-12T01:01:16.614Z,99.99
2018-09-12T01:02:16.595Z,99.99
2018-09-12T01:03:16.574Z,99.99
2018-09-12T01:04:16.552Z,99.99
2018-09-12T01:05:16.531Z,99.53
2018-09-12T01:06:16.510Z,99.05
2018-09-12T01:07:16.491Z,98.48
2018-09-12T01:08:16.467Z,97.90
2018-09-12T01:09:16.446Z,98.00
2018-09-12T01:10:16.426Z,98.00
2018-09-12T01:11:16.406Z,98.10
2018-09-12T01:12:16.384Z,97.71
2018-09-12T01:13:16.363Z,98.28
2018-09-12T01:14:16.343Z,97.90
2018-09-12T01:15:16.326Z,98.19
2018-09-12T01:16:16.300Z,97.52
2018-09-12T01:17:16.276Z,97.42
2018-09-12T01:18:16.258Z,96.85
2018-09-12T01:19:16.236Z,96.56
2018-09-12T01:20:16.213Z,96.47
2018-09-12T01:21:16.192Z,96.37
2018-09-12T01:22:16.170Z,96.56
2018-09-12T01:23:16.149Z,96.56
2018-09-12T01:24:16.129Z,96.47
2018-09-12T01:25:16.107Z,96.27
2018-09-12T01:26:16.086Z,96.27
2018-09-12T01:27:16.066Z,96.94
2018-09-12T01:28:16.045Z,97.18
2018-09-12T01:29:16.029Z,97.09
2018-09-12T01:30:16.002Z,96.99
2018-09-12T01:31:15.981Z,96.22
2018-09-12T01:32:15.956Z,96.13
2018-09-12T01:33:15.937Z,96.13
2018-09-12T01:34:15.916Z,96.99
2018-09-12T01:35:15.894Z,96.32
2018-09-12T01:36:15.873Z,96.61
2018-09-12T01:37:15.851Z,96.51
2018-09-12T01:38:15.837Z,95.65
2018-09-12T01:39:15.809Z,95.17
2018-09-12T01:40:15.787Z,95.26
2018-09-12T01:41:15.765Z,94.69
2018-09-12T01:42:15.744Z,94.50
2018-09-12T01:43:15.723Z,94.59
2018-09-12T01:44:15.701Z,94.40
2018-09-12T01:45:15.680Z,94.21
2018-09-12T01:46:15.657Z,94.17
2018-09-12T01:47:15.636Z,93.68
2018-09-12T01:48:15.614Z,93.40
2018-09-12T01:49:15.593Z,93.30
2018-09-12T01:50:15.572Z,93.01
2018-09-12T01:51:15.549Z,92.34
2018-09-12T01:52:15.528Z,92.44
2018-09-12T01:53:15.505Z,92.72
2018-09-12T01:54:15.485Z,92.54
2018-09-12T01:55:15.464Z,92.54
2018-09-12T01:56:15.442Z,91.86
2018-09-12T01:57:15.419Z,91.96
2018-09-12T01:58:15.400Z,91.67
2018-09-12T01:59:15.376Z,91.96
2018-09-12T02:00:15.355Z,92.15
2018-09-12T02:01:15.333Z,91.42
2018-09-12T02:02:15.311Z,92.05
2018-09-12T02:03:15.290Z,92.15
2018-09-12T02:04:15.273Z,91.86
2018-09-12T02:05:15.247Z,91.96
2018-09-12T02:06:15.226Z,92.15
2018-09-12T02:07:15.251Z,92.24
2018-09-12T02:08:15.186Z,92.54
2018-09-12T02:09:15.166Z,92.34
2018-09-12T02:10:15.143Z,92.44
2018-09-12T02:11:15.118Z,92.44
2018-09-12T02:12:15.094Z,92.44
2018-09-12T02:13:15.072Z,92.34
2018-09-12T02:14:15.051Z,92.63
2018-09-12T02:15:15.030Z,92.44
2018-09-12T02:16:15.006Z,93.30
2018-09-12T02:17:14.992Z,93.40
2018-09-12T02:18:14.965Z,93.11
2018-09-12T02:19:14.943Z,93.21
2018-09-12T02:20:14.921Z,93.01
2018-09-12T02:21:14.898Z,93.68
2018-09-12T02:22:14.879Z,93.59
2018-09-12T02:23:14.856Z,93.30
2018-09-12T02:24:14.833Z,92.91
2018-09-12T02:25:14.813Z,92.91
2018-09-12T02:26:14.790Z,92.63
2018-09-12T02:27:14.768Z,92.44
2018-09-12T02:28:14.750Z,92.72
2018-09-12T02:29:14.726Z,92.68
2018-09-12T02:30:14.705Z,92.00
2018-09-12T02:31:14.687Z,92.58
2018-09-12T02:32:14.665Z,92.58
2018-09-12T02:33:14.639Z,92.10
2018-09-12T02:34:14.617Z,91.72
2018-09-12T02:35:14.600Z,92.58
2018-09-12T02:36:14.575Z,92.68
2018-09-12T02:37:14.553Z,92.29
2018-09-12T02:38:14.531Z,92.48
2018-09-12T02:39:14.509Z,92.68
2018-09-12T02:40:14.489Z,92.00
2018-09-12T02:41:14.465Z,92.00
2018-09-12T02:42:14.443Z,92.10
2018-09-12T02:43:14.424Z,92.10
2018-09-12T02:44:14.402Z,92.10
2018-09-12T02:45:14.379Z,92.00
2018-09-12T02:46:14.359Z,92.58
2018-09-12T02:47:14.339Z,92.77
2018-09-12T02:48:14.314Z,92.29
2018-09-12T02:49:14.294Z,93.35
2018-09-12T02:50:14.270Z,92.86
2018-09-12T02:51:14.249Z,93.35
2018-09-12T02:52:14.227Z,93.06
2018-09-12T02:53:14.205Z,92.96
2018-09-12T02:54:14.183Z,93.44
2018-09-12T02:55:14.163Z,93.73
2018-09-12T02:56:14.140Z,93.63
2018-09-12T02:57:14.117Z,93.35
2018-09-12T02:58:14.102Z,93.35
2018-09-12T02:59:14.075Z,93.44
2018-09-12T03:00:14.054Z,93.06
2018-09-12T03:01:14.033Z,93.25
2018-09-12T03:02:14.012Z,93.44
2018-09-12T03:03:13.989Z,93.63
2018-09-12T03:04:13.965Z,93.63
2018-09-12T03:05:13.944Z,93.54
2018-09-12T03:06:13.923Z,93.44
2018-09-12T03:07:13.902Z,93.82
2018-09-12T03:08:13.881Z,94.40
2018-09-12T03:09:13.859Z,94.40
2018-09-12T03:10:13.836Z,94.07
2018-09-12T03:11:13.814Z,94.45
2018-09-12T03:12:13.793Z,94.64
2018-09-12T03:13:13.772Z,94.49
2018-09-12T03:14:13.750Z,94.69
2018-09-12T03:15:13.729Z,94.49
2018-09-12T03:16:13.707Z,94.59
2018-09-12T03:17:13.684Z,94.45
2018-09-12T03:18:13.664Z,94.69
2018-09-12T03:19:13.643Z,95.07
2018-09-12T03:20:13.621Z,95.36
2018-09-12T03:21:13.598Z,95.46
2018-09-12T03:22:13.578Z,95.21
2018-09-12T03:23:13.555Z,94.79
2018-09-12T03:24:13.534Z,94.49
2018-09-12T03:25:13.513Z,95.07
2018-09-12T03:26:13.495Z,94.12
2018-09-12T03:27:13.471Z,94.31
2018-09-12T03:28:13.456Z,94.12
2018-09-12T03:29:13.431Z,93.44
2018-09-12T03:30:13.406Z,93.35
2018-09-12T03:31:13.387Z,93.63
2018-09-12T03:32:13.364Z,93.82
2018-09-12T03:33:13.343Z,93.25
2018-09-12T03:34:13.322Z,93.44
2018-09-12T03:35:13.299Z,93.54
2018-09-12T03:36:13.277Z,93.35
2018-09-12T03:37:13.260Z,93.15
2018-09-12T03:38:13.236Z,93.44
2018-09-12T03:39:13.215Z,93.25
2018-09-12T03:40:13.219Z,93.20
2018-09-12T03:41:13.177Z,92.77
2018-09-12T03:42:13.160Z,92.58
2018-09-12T03:43:13.132Z,92.91
2018-09-12T03:44:13.109Z,93.39
2018-09-12T03:45:13.087Z,93.01
2018-09-12T03:46:13.068Z,92.24
2018-09-12T03:47:13.048Z,92.33
2018-09-12T03:48:13.150Z,91.96
2018-09-12T03:49:13.004Z,91.86
2018-09-12T03:50:12.981Z,91.61
2018-09-12T03:51:12.962Z,91.52
2018-09-12T03:52:12.940Z,91.42
2018-09-12T03:53:12.920Z,90.75
2018-09-12T03:54:12.899Z,90.94
2018-09-12T03:55:12.879Z,90.17
2018-09-12T03:56:12.857Z,90.27
2018-09-12T03:57:12.836Z,90.17
2018-09-12T03:58:12.816Z,90.17
2018-09-12T03:59:12.794Z,89.93
2018-09-12T04:00:12.773Z,89.26
2018-09-12T04:01:12.753Z,89.36
2018-09-12T04:02:12.732Z,89.36
2018-09-12T04:03:12.711Z,89.74
2018-09-12T04:04:12.690Z,89.74
2018-09-12T04:05:12.669Z,89.54
2018-09-12T04:06:12.648Z,89.54
2018-09-12T04:07:12.628Z,89.74
2018-09-12T04:08:12.608Z,89.64
2018-09-12T04:09:12.584Z,89.26
2018-09-12T04:10:12.570Z,89.36
2018-09-12T04:11:12.546Z,89.26
2018-09-12T04:12:12.528Z,89.26
2018-09-12T04:13:12.508Z,89.26
2018-09-12T04:14:12.482Z,89.36
2018-09-12T04:15:12.463Z,89.45
2018-09-12T04:16:12.440Z,89.36
2018-09-12T04:17:12.419Z,89.45
2018-09-12T04:18:12.398Z,89.16
2018-09-12T04:19:12.383Z,89.64
2018-09-12T04:20:12.357Z,89.54
2018-09-12T04:21:12.336Z,89.36
2018-09-12T04:22:12.315Z,89.01
2018-09-12T04:23:12.294Z,89.40
2018-09-12T04:24:12.360Z,89.11
2018-09-12T04:25:12.253Z,89.11
2018-09-12T04:26:12.235Z,88.82
2018-09-12T04:27:12.214Z,88.73
2018-09-12T04:28:12.193Z,88.92
2018-09-12T04:29:12.172Z,88.92
2018-09-12T04:30:12.154Z,88.73
2018-09-12T04:31:12.132Z,89.11
2018-09-12T04:32:12.113Z,89.11
2018-09-12T04:33:12.091Z,89.01
2018-09-12T04:34:12.070Z,89.30
2018-09-12T04:35:12.050Z,88.92
2018-09-12T04:36:12.029Z,88.53
2018-09-12T04:37:12.008Z,88.92
2018-09-12T04:38:11.988Z,88.53
2018-09-12T04:39:11.969Z,88.15
2018-09-12T04:40:11.947Z,88.34
2018-09-12T04:41:11.927Z,88.24
2018-09-12T04:42:11.907Z,88.34
2018-09-12T04:43:11.887Z,88.34
2018-09-12T04:44:11.866Z,88.63
2018-09-12T04:45:11.846Z,88.34
2018-09-12T04:46:11.826Z,87.86
2018-09-12T04:47:11.806Z,88.53
2018-09-12T04:48:11.783Z,87.86
2018-09-12T04:49:11.763Z,87.76
2018-09-12T04:50:11.745Z,88.30
2018-09-12T04:51:11.728Z,87.72
2018-09-12T04:52:11.703Z,87.62
2018-09-12T04:53:11.684Z,87.34
2018-09-12T04:54:11.666Z,88.01
2018-09-12T04:55:11.642Z,87.82
2018-09-12T04:56:11.622Z,88.01
2018-09-12T04:57:11.601Z,88.39
2018-09-12T04:58:11.581Z,88.30
2018-09-12T04:59:11.560Z,87.34
2018-09-12T05:00:11.540Z,87.34
2018-09-12T05:01:11.519Z,87.82
2018-09-12T05:02:11.506Z,88.39
2018-09-12T05:03:11.478Z,88.30
2018-09-12T05:04:11.458Z,88.30
2018-09-12T05:05:11.438Z,89.07
2018-09-12T05:06:11.418Z,88.30
2018-09-12T05:07:11.398Z,87.62
2018-09-12T05:08:11.377Z,88.10
2018-09-12T05:09:11.361Z,87.92
2018-09-12T05:10:11.385Z,87.34
2018-09-12T05:11:11.316Z,87.62
2018-09-12T05:12:11.295Z,87.24
2018-09-12T05:13:11.275Z,86.57
2018-09-12T05:14:11.254Z,86.38
2018-09-12T05:15:11.234Z,86.66
2018-09-12T05:16:11.214Z,87.24
2018-09-12T05:17:11.192Z,86.85
2018-09-12T05:18:11.172Z,86.28
2018-09-12T05:19:11.152Z,86.57
2018-09-12T05:20:11.130Z,86.38
2018-09-12T05:21:11.112Z,86.66
2018-09-12T05:22:11.090Z,86.18
2018-09-12T05:23:11.070Z,85.13
2018-09-12T05:24:11.048Z,85.61
2018-09-12T05:25:11.027Z,85.61
2018-09-12T05:26:11.007Z,85.03
2018-09-12T05:27:10.989Z,84.84
2018-09-12T05:28:10.967Z,84.64
2018-09-12T05:29:10.945Z,84.84
2018-09-12T05:30:10.931Z,84.45
2018-09-12T05:31:10.906Z,84.64
2018-09-12T05:32:10.885Z,84.17
2018-09-12T05:33:10.864Z,84.74
2018-09-12T05:34:10.845Z,84.21
2018-09-12T05:35:10.826Z,84.11
2018-09-12T05:36:10.810Z,84.21
2018-09-12T05:37:10.783Z,83.34
2018-09-12T05:38:10.764Z,83.73
2018-09-12T05:39:10.745Z,83.15
2018-09-12T05:40:10.722Z,83.63
2018-09-12T05:41:10.704Z,83.25
2018-09-12T05:42:10.682Z,84.21
2018-09-12T05:43:10.662Z,83.15
2018-09-12T05:44:10.641Z,82.67
2018-09-12T05:45:10.627Z,82.38
2018-09-12T05:46:10.600Z,82.48
2018-09-12T05:47:10.580Z,82.29
2018-09-12T05:48:10.560Z,82.29
2018-09-12T05:49:10.539Z,80.84
2018-09-12T05:50:10.560Z,81.32
2018-09-12T05:51:10.501Z,81.71
2018-09-12T05:52:10.486Z,81.84
2018-09-12T05:53:10.459Z,79.98
2018-09-12T05:54:10.439Z,80.75
2018-09-12T05:55:10.419Z,80.21
2018-09-12T05:56:10.399Z,80.69
2018-09-12T05:57:10.379Z,80.27
2018-09-12T05:58:10.360Z,80.27
2018-09-12T05:59:10.340Z,80.46
2018-09-12T06:00:10.320Z,80.50
2018-09-12T06:01:10.298Z,81.13
2018-09-12T06:02:10.281Z,80.46
2018-09-12T06:03:10.260Z,80.55
2018-09-12T06:04:10.239Z,81.23
2018-09-12T06:05:10.220Z,80.94
2018-09-12T06:06:10.199Z,80.94
2018-09-12T06:07:10.323Z,80.84
2018-09-12T06:08:10.158Z,80.36
2018-09-12T06:09:10.139Z,80.36
2018-09-12T06:10:10.121Z,80.94
2018-09-12T06:11:10.099Z,81.52
2018-09-12T06:12:10.078Z,80.84
2018-09-12T06:13:10.059Z,80.55
2018-09-12T06:14:10.081Z,81.04
2018-09-12T06:15:10.020Z,81.32
2018-09-12T06:16:09.999Z,80.17
2018-09-12T06:17:09.979Z,80.55
2018-09-12T06:18:09.959Z,80.55
2018-09-12T06:19:09.939Z,79.92
2018-09-12T06:20:09.919Z,80.69
2018-09-12T06:21:09.898Z,79.82
2018-09-12T06:22:09.879Z,80.02
2018-09-12T06:23:09.860Z,79.53
2018-09-12T06:24:09.840Z,79.48
2018-09-12T06:25:09.820Z,79.19
2018-09-12T06:26:09.799Z,78.42
2018-09-12T06:27:09.786Z,78.33
2018-09-12T06:28:09.760Z,79.00
2018-09-12T06:29:09.744Z,78.52
2018-09-12T06:30:09.721Z,77.75
2018-09-12T06:31:09.703Z,77.36
2018-09-12T06:32:09.682Z,77.01
2018-09-12T06:33:09.662Z,76.34
2018-09-12T06:34:09.644Z,78.36
2018-09-12T06:35:09.624Z,79.75
2018-09-12T06:36:09.604Z,83.70
2018-09-12T06:37:09.585Z,84.72
2018-09-12T06:38:09.567Z,84.66
2018-09-12T06:39:09.546Z,84.86
2018-09-12T06:40:09.526Z,84.66
2018-09-12T06:41:09.507Z,84.18
2018-09-12T06:42:09.489Z,85.05
2018-09-12T06:43:09.468Z,85.43
2018-09-12T06:44:09.459Z,86.11
2018-09-12T06:45:09.431Z,86.35
2018-09-12T06:46:09.411Z,86.65
2018-09-12T06:47:09.394Z,86.65
2018-09-12T06:48:09.373Z,87.51
2018-09-12T06:49:09.354Z,87.80
2018-09-12T06:50:09.335Z,87.70
2018-09-12T06:51:09.317Z,88.09
2018-09-12T06:52:09.295Z,88.38
2018-09-12T06:53:09.276Z,88.47
2018-09-12T06:54:09.260Z,88.47
2018-09-12T06:55:09.238Z,88.76
2018-09-12T06:56:09.218Z,88.76
2018-09-12T06:57:09.201Z,88.67
2018-09-12T06:58:09.180Z,88.76
2018-09-12T06:59:09.161Z,88.95
2018-09-12T07:00:09.142Z,88.38
2018-09-12T07:01:09.190Z,88.71
2018-09-12T07:02:09.103Z,88.62
2018-09-12T07:03:09.084Z,89.58
2018-09-12T07:04:09.065Z,89.68
2018-09-12T07:05:09.046Z,89.97
2018-09-12T07:06:09.025Z,90.06
2018-09-12T07:07:09.006Z,90.06
2018-09-12T07:08:08.985Z,90.35
2018-09-12T07:09:08.966Z,89.78
2018-09-12T07:10:08.946Z,89.97
2018-09-12T07:11:08.925Z,89.39
2018-09-12T07:12:08.907Z,89.58
2018-09-12T07:13:08.887Z,89.58
2018-09-12T07:14:08.931Z,89.05
2018-09-12T07:15:08.847Z,88.95
2018-09-12T07:16:08.826Z,88.67
2018-09-12T07:17:08.809Z,87.70
2018-09-12T07:18:08.790Z,87.70
2018-09-12T07:19:08.768Z,88.38
2018-09-12T07:20:08.750Z,87.07
2018-09-12T07:21:08.730Z,86.88
2018-09-12T07:22:08.710Z,85.91
2018-09-12T07:23:08.692Z,85.91
2018-09-12T07:24:08.671Z,84.76
2018-09-12T07:25:08.652Z,84.90
2018-09-12T07:26:08.633Z,84.86
2018-09-12T07:27:08.615Z,85.43
2018-09-12T07:28:08.594Z,85.82
2018-09-12T07:29:08.576Z,85.63
2018-09-12T07:30:08.558Z,85.34
2018-09-12T07:31:08.538Z,85.05
2018-09-12T07:32:08.519Z,84.61
2018-09-12T07:33:08.499Z,84.99
2018-09-12T07:34:08.481Z,84.22
2018-09-12T07:35:08.464Z,82.43
2018-09-12T07:36:08.443Z,79.95
2018-09-12T07:37:08.424Z,78.06
2018-09-12T07:38:08.407Z,75.97
2018-09-12T07:39:08.388Z,73.94
2018-09-12T07:40:08.369Z,73.04
2018-09-12T07:41:08.350Z,72.17
2018-09-12T07:42:08.333Z,72.42
2018-09-12T07:43:08.315Z,71.40
2018-09-12T07:44:08.296Z,71.40
2018-09-12T07:45:08.284Z,71.14
2018-09-12T07:46:08.262Z,67.98
2018-09-12T07:47:08.245Z,68.18
2018-09-12T07:48:08.228Z,66.95
2018-09-12T07:49:08.281Z,66.11
2018-09-12T07:50:08.194Z,65.43
2018-09-12T07:51:08.178Z,65.08
2018-09-12T07:52:08.160Z,63.75
2018-09-12T07:53:08.145Z,63.07
2018-09-12T07:54:08.129Z,62.88
2018-09-12T07:55:08.124Z,61.74
2018-09-12T07:56:08.196Z,60.83
2018-09-12T07:57:08.081Z,59.76
2018-09-12T07:58:08.064Z,62.10
2018-09-12T07:59:08.050Z,63.98
2018-09-12T08:00:08.043Z,66.53
2018-09-12T08:01:08.019Z,68.05
2018-09-12T08:02:08.002Z,70.20
2018-09-12T08:03:07.986Z,71.56
2018-09-12T08:04:07.972Z,72.49
2018-09-12T08:05:07.991Z,74.00
2018-09-12T08:06:07.940Z,75.31
2018-09-12T08:07:07.923Z,76.34
2018-09-12T08:08:07.905Z,77.65
2018-09-12T08:09:07.890Z,79.16
2018-09-12T08:10:07.875Z,80.22
2018-09-12T08:11:07.858Z,81.43
2018-09-12T08:12:07.876Z,82.26
2018-09-12T08:13:07.823Z,83.03
2018-09-12T08:14:07.808Z,83.61
2018-09-12T08:15:07.789Z,84.28
2018-09-12T08:16:07.771Z,84.91
2018-09-12T08:17:07.762Z,84.33
2018-09-12T08:18:07.736Z,85.20
2018-09-12T08:19:07.812Z,85.78
2018-09-12T08:20:07.699Z,86.07
2018-09-12T08:21:07.680Z,86.35
2018-09-12T08:22:07.661Z,86.69
2018-09-12T08:23:07.644Z,86.60
2018-09-12T08:24:07.623Z,86.41
2018-09-12T08:25:07.607Z,86.60
2018-09-12T08:26:07.592Z,86.60
2018-09-12T08:27:07.570Z,87.27
2018-09-12T08:28:07.550Z,86.51
2018-09-12T08:29:07.532Z,86.60
2018-09-12T08:30:07.512Z,86.60
2018-09-12T08:31:07.501Z,86.51
2018-09-12T08:32:07.474Z,86.55
2018-09-12T08:33:07.456Z,85.83
2018-09-12T08:34:07.435Z,86.02
2018-09-12T08:35:07.417Z,86.36
2018-09-12T08:36:07.397Z,86.52
2018-09-12T08:37:07.378Z,87.76
2018-09-12T08:38:07.361Z,87.76
2018-09-12T08:39:07.339Z,88.01
2018-09-12T08:40:07.321Z,88.30
2018-09-12T08:41:07.300Z,88.53
2018-09-12T08:42:07.284Z,88.34
2018-09-12T08:43:07.267Z,87.57
2018-09-12T08:44:07.241Z,87.86
2018-09-12T08:45:07.222Z,88.20
2018-09-12T08:46:07.203Z,88.68
2018-09-12T08:47:07.184Z,89.26
2018-09-12T08:48:07.162Z,89.83
2018-09-12T08:49:07.144Z,90.37
2018-09-12T08:50:07.124Z,90.94
2018-09-12T08:51:07.105Z,90.84
2018-09-12T08:52:07.084Z,90.46
2018-09-12T08:53:07.064Z,90.66
2018-09-12T08:54:07.045Z,90.37
2018-09-12T08:55:07.024Z,89.89
2018-09-12T08:56:07.005Z,91.28
2018-09-12T08:57:06.984Z,92.14
2018-09-12T08:58:06.965Z,92.53
2018-09-12T08:59:06.945Z,92.19
2018-09-12T09:00:06.949Z,91.61
2018-09-12T09:01:06.905Z,89.64
2018-09-12T09:02:06.885Z,87.38
2018-09-12T09:03:06.864Z,84.73
2018-09-12T09:04:06.915Z,83.58
2018-09-12T09:05:06.824Z,84.83
2018-09-12T09:06:06.804Z,83.95
2018-09-12T09:07:06.784Z,79.77
2018-09-12T09:08:06.765Z,73.67
2018-09-12T09:09:06.744Z,73.00
2018-09-12T09:10:06.726Z,72.94
2018-09-12T09:11:06.707Z,72.67
2018-09-12T09:12:06.691Z,72.77
2018-09-12T09:13:06.668Z,74.52
2018-09-12T09:14:06.650Z,76.61
2018-09-12T09:15:06.632Z,78.88
2018-09-12T09:16:06.614Z,80.33
2018-09-12T09:17:06.604Z,80.38
2018-09-12T09:18:06.576Z,82.12
2018-09-12T09:19:06.559Z,81.39
2018-09-12T09:20:06.540Z,81.04
2018-09-12T09:21:06.520Z,78.29
2018-09-12T09:22:06.504Z,77.33
2018-09-12T09:23:06.485Z,76.84
2018-09-12T09:24:06.466Z,77.23
2018-09-12T09:25:06.448Z,76.68
2018-09-12T09:26:06.430Z,76.84
2018-09-12T09:27:06.412Z,77.09
2018-09-12T09:28:06.394Z,79.17
2018-09-12T09:29:06.378Z,80.33
2018-09-12T09:30:06.359Z,79.21
2018-09-12T09:31:06.340Z,78.44
2018-09-12T09:32:06.322Z,78.44
2018-09-12T09:33:06.305Z,79.66
2018-09-12T09:34:06.285Z,81.35
2018-09-12T09:35:06.326Z,82.46
2018-09-12T09:36:06.250Z,83.86
2018-09-12T09:37:06.231Z,84.83
2018-09-12T09:38:06.213Z,85.11
2018-09-12T09:39:06.195Z,85.07
2018-09-12T09:40:06.176Z,86.04
2018-09-12T09:41:06.190Z,86.08
2018-09-12T09:42:06.144Z,85.88
2018-09-12T09:43:06.120Z,85.40
2018-09-12T09:44:06.156Z,85.40
2018-09-12T09:45:06.081Z,85.02
2018-09-12T09:46:06.063Z,84.87
2018-09-12T09:47:06.048Z,84.29
2018-09-12T09:48:06.158Z,84.19
2018-09-12T09:49:06.006Z,83.28
2018-09-12T09:50:05.987Z,81.39
2018-09-12T09:51:05.970Z,79.89
2018-09-12T09:52:05.949Z,79.17
2018-09-12T09:53:05.931Z,79.85
2018-09-12T09:54:05.913Z,81.63
2018-09-12T09:55:05.989Z,81.63
2018-09-12T09:56:05.874Z,81.45
2018-09-12T09:57:05.856Z,81.93
2018-09-12T09:58:05.836Z,82.85
2018-09-12T09:59:05.817Z,83.33
2018-09-12T10:00:05.798Z,83.77
2018-09-12T10:01:05.783Z,83.96
2018-09-12T10:02:05.761Z,84.54
2018-09-12T10:03:05.741Z,84.88
2018-09-12T10:04:05.752Z,85.36
2018-09-12T10:05:05.702Z,86.04
2018-09-12T10:06:05.683Z,86.76
2018-09-12T10:07:05.664Z,87.62
2018-09-12T10:08:05.643Z,88.10
2018-09-12T10:09:05.623Z,87.62
2018-09-12T10:10:05.604Z,86.85
2018-09-12T10:11:05.585Z,87.15
2018-09-12T10:12:05.564Z,87.15
2018-09-12T10:13:05.545Z,88.01
2018-09-12T10:14:05.527Z,88.49
2018-09-12T10:15:05.507Z,88.73
2018-09-12T10:16:05.484Z,89.60
2018-09-12T10:17:05.466Z,90.66
2018-09-12T10:18:05.445Z,91.23
2018-09-12T10:19:05.425Z,91.28
2018-09-12T10:20:05.406Z,92.43
2018-09-12T10:21:05.384Z,93.10
2018-09-12T10:22:05.366Z,93.39
2018-09-12T10:23:05.346Z,94.74
2018-09-12T10:24:05.322Z,94.83
2018-09-12T10:25:05.305Z,93.59
2018-09-12T10:26:05.284Z,94.49
2018-09-12T10:27:05.264Z,94.40
2018-09-12T10:28:05.241Z,94.98
2018-09-12T10:29:05.222Z,95.41
2018-09-12T10:30:05.201Z,95.98
2018-09-12T10:31:05.181Z,96.47
2018-09-12T10:32:05.159Z,97.56
2018-09-12T10:33:05.138Z,98.05
2018-09-12T10:34:05.122Z,98.72
2018-09-12T10:35:05.098Z,99.73
2018-09-12T10:36:05.079Z,99.99
2018-09-12T10:37:05.055Z,99.99
2018-09-12T10:38:05.034Z,99.53
2018-09-12T10:39:05.013Z,99.99
2018-09-12T10:40:04.996Z,99.15
2018-09-12T10:41:05.001Z,98.67
2018-09-12T10:42:04.951Z,97.95
2018-09-12T10:43:04.930Z,98.05
2018-09-12T10:44:04.908Z,97.38
2018-09-12T10:45:04.887Z,97.71
2018-09-12T10:46:04.867Z,94.35
2018-09-12T10:47:04.845Z,94.78
2018-09-12T10:48:04.822Z,93.10
2018-09-12T10:49:04.805Z,90.51
2018-09-12T10:50:04.780Z,89.07
2018-09-12T10:51:04.760Z,88.78
2018-09-12T10:52:04.738Z,89.36
2018-09-12T10:53:04.718Z,88.34
2018-09-12T10:54:04.698Z,86.99
2018-09-12T10:55:04.679Z,86.08
2018-09-12T10:56:04.657Z,84.58
2018-09-12T10:57:04.636Z,83.91
2018-09-12T10:58:04.617Z,82.89
2018-09-12T10:59:04.644Z,81.45
2018-09-12T11:00:04.576Z,80.87
2018-09-12T11:01:04.557Z,81.25
2018-09-12T11:02:04.539Z,80.96
2018-09-12T11:03:04.518Z,80.10
2018-09-12T11:04:04.497Z,80.87
2018-09-12T11:05:04.478Z,79.94
2018-09-12T11:06:04.458Z,76.45
2018-09-12T11:07:04.439Z,75.88
2018-09-12T11:08:04.418Z,77.33
2018-09-12T11:09:04.400Z,77.38
2018-09-12T11:10:04.381Z,76.55
2018-09-12T11:11:04.362Z,73.54
2018-09-12T11:12:04.342Z,70.65
2018-09-12T11:13:04.340Z,67.85
2018-09-12T11:14:04.309Z,70.32
2018-09-12T11:15:04.289Z,70.48
2018-09-12T11:16:04.269Z,71.22
2018-09-12T11:17:04.250Z,71.26
2018-09-12T11:18:04.246Z,70.84
2018-09-12T11:19:04.214Z,71.48
2018-09-12T11:20:04.203Z,72.73
2018-09-12T11:21:04.177Z,73.75
2018-09-12T11:22:04.159Z,75.65
2018-09-12T11:23:04.141Z,75.65
2018-09-12T11:24:04.189Z,76.57
2018-09-12T11:25:04.122Z,78.31
2018-09-12T11:26:04.114Z,78.11
2018-09-12T11:27:04.106Z,78.65
2018-09-12T11:28:04.050Z,79.71
2018-09-12T11:29:04.074Z,79.81
2018-09-12T11:30:04.056Z,78.46
2018-09-12T11:31:04.037Z,78.21
2018-09-12T11:32:03.994Z,77.73
2018-09-12T11:33:03.957Z,76.71
2018-09-12T11:34:03.946Z,76.51
2018-09-12T11:35:03.923Z,77.00
2018-09-12T11:36:03.903Z,76.61
2018-09-12T11:37:03.908Z,76.76
2018-09-12T11:38:03.890Z,77.09
2018-09-12T11:39:03.882Z,77.09
2018-09-12T11:40:03.893Z,76.13
2018-09-12T11:41:03.811Z,76.61
2018-09-12T11:42:03.794Z,77.15
2018-09-12T11:43:03.805Z,77.06
2018-09-12T11:44:03.788Z,77.63
2018-09-12T11:45:03.757Z,78.36
2018-09-12T11:46:03.719Z,79.23
2018-09-12T11:47:03.701Z,80.35
2018-09-12T11:48:03.680Z,81.37
2018-09-12T11:49:03.679Z,82.32
2018-09-12T11:50:03.645Z,82.96
2018-09-12T11:51:03.626Z,84.30
2018-09-12T11:52:03.609Z,84.01
2018-09-12T11:53:03.588Z,84.69
2018-09-12T11:54:03.569Z,83.92
2018-09-12T11:55:03.551Z,84.11
2018-09-12T11:56:03.530Z,83.63
2018-09-12T11:57:03.511Z,84.21
2018-09-12T11:58:03.493Z,84.16
2018-09-12T11:59:03.472Z,82.71
2018-09-12T12:00:03.454Z,82.32
2018-09-12T12:01:03.435Z,82.81
2018-09-12T12:02:03.476Z,83.63
2018-09-12T12:03:03.396Z,83.83
2018-09-12T12:04:03.376Z,83.83
2018-09-12T12:05:03.358Z,84.69
2018-09-12T12:06:03.378Z,84.69
2018-09-12T12:07:03.317Z,85.13
2018-09-12T12:08:03.297Z,86.57
2018-09-12T12:09:03.279Z,86.47
2018-09-12T12:10:03.259Z,87.01
2018-09-12T12:11:03.240Z,87.29
2018-09-12T12:12:03.219Z,87.29
2018-09-12T12:13:03.199Z,87.58
2018-09-12T12:14:03.180Z,88.06
2018-09-12T12:15:03.166Z,88.35
2018-09-12T12:16:03.141Z,88.83
2018-09-12T12:17:03.120Z,88.11
2018-09-12T12:18:03.100Z,88.59
2018-09-12T12:19:03.081Z,88.54
2018-09-12T12:20:03.059Z,88.25
2018-09-12T12:21:03.038Z,88.35
2018-09-12T12:22:03.018Z,88.25
2018-09-12T12:23:03.018Z,88.40
2018-09-12T12:24:02.978Z,88.88
2018-09-12T12:25:02.963Z,88.49
2018-09-12T12:26:02.939Z,89.22
2018-09-12T12:27:02.921Z,89.99
2018-09-12T12:28:02.920Z,90.75
2018-09-12T12:29:02.890Z,91.05
2018-09-12T12:30:02.855Z,91.24
2018-09-12T12:31:02.839Z,90.56
2018-09-12T12:32:02.813Z,90.66
2018-09-12T12:33:02.795Z,90.56
2018-09-12T12:34:02.773Z,91.52
2018-09-12T12:35:02.755Z,91.24
2018-09-12T12:36:02.736Z,91.19
2018-09-12T12:37:02.713Z,91.09
2018-09-12T12:38:02.689Z,91.09
2018-09-12T12:39:02.669Z,91.24
2018-09-12T12:40:02.649Z,90.70
2018-09-12T12:41:02.627Z,90.95
2018-09-12T12:42:02.607Z,90.99
2018-09-12T12:43:02.587Z,90.80
2018-09-12T12:44:02.565Z,90.42
2018-09-12T12:45:02.545Z,89.46
2018-09-12T12:46:02.524Z,90.03
2018-09-12T12:47:02.502Z,89.07
2018-09-12T12:48:02.483Z,89.46
2018-09-12T12:49:02.464Z,89.36
2018-09-12T12:50:02.440Z,89.46
2018-09-12T12:51:02.421Z,89.94
2018-09-12T12:52:02.400Z,90.52